sensor_id;sensor_type;location;lat;lon;timestamp;P1;durP1;ratioP1;P2;durP2;ratioP2
2784;SDS011;57944;48.722;9.316;2023-07-30T00:01:20;9.67;;;5.13;;
2784;SDS011;57944;48.722;9.316;2023-07-30T00:03:50;6.37;;;4.37;;
2784;SDS011;57944;48.722;9.316;2023-07-30T00:06:21;8.03;;;5.50;;
2784;SDS011;57944;48.722;9.316;2023-07-30T00:08:52;10.00;;;5.43;;
2784;SDS011;57944;48.722;9.316;2023-07-30T00:11:25;8.00;;;6.33;;
2784;SDS011;57944;48.722;9.316;2023-07-30T00:13:55;9.90;;;6.03;;
2784;SDS011;57944;48.722;9.316;2023-07-30T00:16:26;9.40;;;5.70;;
2784;SDS011;57944;48.722;9.316;2023-07-30T00:18:57;8.87;;;6.60;;
2784;SDS011;57944;48.722;9.316;2023-07-30T00:21:27;10.30;;;6.60;;
2784;SDS011;57944;48.722;9.316;2023-07-30T00:23:58;14.20;;;7.23;;
2784;SDS011;57944;48.722;9.316;2023-07-30T00:26:31;10.10;;;6.63;;
2784;SDS011;57944;48.722;9.316;2023-07-30T00:29:02;7.40;;;5.87;;
2784;SDS011;57944;48.722;9.316;2023-07-30T00:31:33;10.20;;;6.80;;
2784;SDS011;57944;48.722;9.316;2023-07-30T00:34:04;10.00;;;6.77;;
2784;SDS011;57944;48.722;9.316;2023-07-30T00:36:34;11.80;;;7.80;;
2784;SDS011;57944;48.722;9.316;2023-07-30T00:39:05;9.57;;;7.57;;
2784;SDS011;57944;48.722;9.316;2023-07-30T00:41:40;10.20;;;7.63;;
2784;SDS011;57944;48.722;9.316;2023-07-30T00:44:12;14.80;;;7.90;;
2784;SDS011;57944;48.722;9.316;2023-07-30T00:46:43;9.80;;;6.90;;
2784;SDS011;57944;48.722;9.316;2023-07-30T00:49:13;9.60;;;7.70;;
2784;SDS011;57944;48.722;9.316;2023-07-30T00:51:44;12.10;;;7.90;;
2784;SDS011;57944;48.722;9.316;2023-07-30T00:54:16;25.73;;;7.60;;
2784;SDS011;57944;48.722;9.316;2023-07-30T00:56:50;11.80;;;6.90;;
2784;SDS011;57944;48.722;9.316;2023-07-30T00:59:21;12.00;;;8.50;;
2784;SDS011;57944;48.722;9.316;2023-07-30T01:01:52;9.30;;;7.10;;
2784;SDS011;57944;48.722;9.316;2023-07-30T01:04:25;11.90;;;7.57;;
2784;SDS011;57944;48.722;9.316;2023-07-30T01:06:56;14.33;;;8.43;;
2784;SDS011;57944;48.722;9.316;2023-07-30T01:09:27;13.87;;;8.40;;
2784;SDS011;57944;48.722;9.316;2023-07-30T01:12:00;10.67;;;8.07;;
2784;SDS011;57944;48.722;9.316;2023-07-30T01:14:33;12.10;;;8.03;;
2784;SDS011;57944;48.722;9.316;2023-07-30T01:17:07;11.47;;;8.47;;
2784;SDS011;57944;48.722;9.316;2023-07-30T01:19:37;14.60;;;8.33;;
2784;SDS011;57944;48.722;9.316;2023-07-30T01:22:10;11.27;;;8.13;;
2784;SDS011;57944;48.722;9.316;2023-07-30T01:24:41;19.93;;;8.23;;
2784;SDS011;57944;48.722;9.316;2023-07-30T01:27:14;16.33;;;8.10;;
2784;SDS011;57944;48.722;9.316;2023-07-30T01:29:52;11.93;;;6.60;;
2784;SDS011;57944;48.722;9.316;2023-07-30T01:32:27;12.23;;;6.97;;
2784;SDS011;57944;48.722;9.316;2023-07-30T01:34:59;13.30;;;6.33;;
2784;SDS011;57944;48.722;9.316;2023-07-30T01:37:34;10.07;;;7.70;;
2784;SDS011;57944;48.722;9.316;2023-07-30T01:40:07;8.63;;;7.10;;
2784;SDS011;57944;48.722;9.316;2023-07-30T01:42:39;13.47;;;8.17;;
2784;SDS011;57944;48.722;9.316;2023-07-30T01:45:09;11.10;;;7.57;;
2784;SDS011;57944;48.722;9.316;2023-07-30T01:47:40;12.07;;;7.47;;
2784;SDS011;57944;48.722;9.316;2023-07-30T01:50:10;13.13;;;8.00;;
2784;SDS011;57944;48.722;9.316;2023-07-30T01:52:44;9.70;;;6.67;;
2784;SDS011;57944;48.722;9.316;2023-07-30T01:55:14;7.60;;;6.63;;
2784;SDS011;57944;48.722;9.316;2023-07-30T01:57:45;11.23;;;7.57;;
2784;SDS011;57944;48.722;9.316;2023-07-30T02:00:16;12.77;;;7.60;;
2784;SDS011;57944;48.722;9.316;2023-07-30T02:02:46;10.20;;;8.33;;
2784;SDS011;57944;48.722;9.316;2023-07-30T02:05:17;11.97;;;8.50;;
2784;SDS011;57944;48.722;9.316;2023-07-30T02:07:51;10.40;;;7.70;;
2784;SDS011;57944;48.722;9.316;2023-07-30T02:10:23;10.90;;;7.67;;
2784;SDS011;57944;48.722;9.316;2023-07-30T02:12:55;11.83;;;8.83;;
2784;SDS011;57944;48.722;9.316;2023-07-30T02:15:26;10.17;;;6.60;;
2784;SDS011;57944;48.722;9.316;2023-07-30T02:17:56;14.00;;;6.90;;
2784;SDS011;57944;48.722;9.316;2023-07-30T02:20:27;11.77;;;8.23;;
2784;SDS011;57944;48.722;9.316;2023-07-30T02:23:00;11.43;;;7.90;;
2784;SDS011;57944;48.722;9.316;2023-07-30T02:25:31;12.17;;;8.50;;
2784;SDS011;57944;48.722;9.316;2023-07-30T02:28:01;13.67;;;9.00;;
2784;SDS011;57944;48.722;9.316;2023-07-30T02:30:32;12.83;;;7.40;;
2784;SDS011;57944;48.722;9.316;2023-07-30T02:33:03;13.10;;;8.20;;
2784;SDS011;57944;48.722;9.316;2023-07-30T02:35:34;12.13;;;7.70;;
2784;SDS011;57944;48.722;9.316;2023-07-30T02:38:07;15.30;;;9.20;;
2784;SDS011;57944;48.722;9.316;2023-07-30T02:40:37;12.20;;;8.40;;
2784;SDS011;57944;48.722;9.316;2023-07-30T02:43:08;11.97;;;7.80;;
2784;SDS011;57944;48.722;9.316;2023-07-30T02:45:38;10.23;;;7.27;;
2784;SDS011;57944;48.722;9.316;2023-07-30T02:48:09;9.43;;;7.43;;
2784;SDS011;57944;48.722;9.316;2023-07-30T02:50:40;11.10;;;8.03;;
2784;SDS011;57944;48.722;9.316;2023-07-30T02:53:13;8.50;;;5.83;;
2784;SDS011;57944;48.722;9.316;2023-07-30T02:55:43;8.63;;;6.27;;
2784;SDS011;57944;48.722;9.316;2023-07-30T02:58:14;9.70;;;5.80;;
2784;SDS011;57944;48.722;9.316;2023-07-30T03:00:45;8.40;;;6.27;;
2784;SDS011;57944;48.722;9.316;2023-07-30T03:03:16;9.37;;;6.63;;
2784;SDS011;57944;48.722;9.316;2023-07-30T03:05:46;9.50;;;6.33;;
2784;SDS011;57944;48.722;9.316;2023-07-30T03:08:20;9.80;;;5.73;;
2784;SDS011;57944;48.722;9.316;2023-07-30T03:10:50;8.03;;;5.93;;
2784;SDS011;57944;48.722;9.316;2023-07-30T03:13:21;7.50;;;6.60;;
2784;SDS011;57944;48.722;9.316;2023-07-30T03:15:51;9.27;;;6.13;;
2784;SDS011;57944;48.722;9.316;2023-07-30T03:18:22;7.70;;;6.10;;
2784;SDS011;57944;48.722;9.316;2023-07-30T03:20:57;11.03;;;6.13;;
2784;SDS011;57944;48.722;9.316;2023-07-30T03:23:31;8.70;;;5.47;;
2784;SDS011;57944;48.722;9.316;2023-07-30T03:26:01;7.30;;;6.10;;
2784;SDS011;57944;48.722;9.316;2023-07-30T03:28:32;7.03;;;5.53;;
2784;SDS011;57944;48.722;9.316;2023-07-30T03:31:06;7.83;;;5.60;;
2784;SDS011;57944;48.722;9.316;2023-07-30T03:33:37;9.20;;;6.00;;
2784;SDS011;57944;48.722;9.316;2023-07-30T03:36:10;9.60;;;7.33;;
2784;SDS011;57944;48.722;9.316;2023-07-30T03:38:43;8.80;;;6.60;;
2784;SDS011;57944;48.722;9.316;2023-07-30T03:41:14;15.30;;;7.17;;
2784;SDS011;57944;48.722;9.316;2023-07-30T03:43:45;9.20;;;7.33;;
2784;SDS011;57944;48.722;9.316;2023-07-30T03:46:15;8.93;;;6.30;;
2784;SDS011;57944;48.722;9.316;2023-07-30T03:48:47;11.10;;;7.67;;
2784;SDS011;57944;48.722;9.316;2023-07-30T03:51:17;9.37;;;7.00;;
2784;SDS011;57944;48.722;9.316;2023-07-30T03:53:51;11.27;;;7.90;;
2784;SDS011;57944;48.722;9.316;2023-07-30T03:56:22;13.03;;;7.50;;
2784;SDS011;57944;48.722;9.316;2023-07-30T03:58:53;10.20;;;7.30;;
2784;SDS011;57944;48.722;9.316;2023-07-30T04:01:24;10.80;;;7.10;;
2784;SDS011;57944;48.722;9.316;2023-07-30T04:03:55;10.40;;;6.70;;
2784;SDS011;57944;48.722;9.316;2023-07-30T04:06:26;11.53;;;6.57;;
2784;SDS011;57944;48.722;9.316;2023-07-30T04:08:59;9.83;;;6.33;;
2784;SDS011;57944;48.722;9.316;2023-07-30T04:11:30;15.27;;;6.13;;
2784;SDS011;57944;48.722;9.316;2023-07-30T04:14:00;8.07;;;6.20;;
2784;SDS011;57944;48.722;9.316;2023-07-30T04:16:34;9.10;;;6.70;;
2784;SDS011;57944;48.722;9.316;2023-07-30T04:19:06;13.73;;;8.40;;
2784;SDS011;57944;48.722;9.316;2023-07-30T04:21:37;12.23;;;7.50;;
2784;SDS011;57944;48.722;9.316;2023-07-30T04:24:10;10.03;;;6.23;;
2784;SDS011;57944;48.722;9.316;2023-07-30T04:26:41;7.93;;;6.00;;
2784;SDS011;57944;48.722;9.316;2023-07-30T04:29:11;9.03;;;7.20;;
2784;SDS011;57944;48.722;9.316;2023-07-30T04:31:43;7.47;;;5.87;;
2784;SDS011;57944;48.722;9.316;2023-07-30T04:34:14;9.43;;;6.07;;
2784;SDS011;57944;48.722;9.316;2023-07-30T04:36:44;12.40;;;7.37;;
2784;SDS011;57944;48.722;9.316;2023-07-30T04:39:18;12.93;;;7.90;;
2784;SDS011;57944;48.722;9.316;2023-07-30T04:41:49;9.83;;;6.90;;
2784;SDS011;57944;48.722;9.316;2023-07-30T04:44:20;15.50;;;6.40;;
2784;SDS011;57944;48.722;9.316;2023-07-30T04:46:52;8.93;;;6.00;;
2784;SDS011;57944;48.722;9.316;2023-07-30T04:49:22;11.17;;;7.43;;
2784;SDS011;57944;48.722;9.316;2023-07-30T04:51:53;7.27;;;5.63;;
2784;SDS011;57944;48.722;9.316;2023-07-30T04:54:26;10.40;;;7.23;;
2784;SDS011;57944;48.722;9.316;2023-07-30T04:56:57;10.50;;;7.23;;
2784;SDS011;57944;48.722;9.316;2023-07-30T04:59:28;10.30;;;6.90;;
2784;SDS011;57944;48.722;9.316;2023-07-30T05:02:00;7.93;;;6.37;;
2784;SDS011;57944;48.722;9.316;2023-07-30T05:04:30;10.80;;;7.23;;
2784;SDS011;57944;48.722;9.316;2023-07-30T05:07:01;9.13;;;6.20;;
2784;SDS011;57944;48.722;9.316;2023-07-30T05:09:34;14.03;;;7.03;;
2784;SDS011;57944;48.722;9.316;2023-07-30T05:12:05;10.90;;;7.87;;
2784;SDS011;57944;48.722;9.316;2023-07-30T05:14:36;9.63;;;6.37;;
2784;SDS011;57944;48.722;9.316;2023-07-30T05:17:07;12.13;;;7.43;;
2784;SDS011;57944;48.722;9.316;2023-07-30T05:19:37;9.10;;;6.90;;
2784;SDS011;57944;48.722;9.316;2023-07-30T05:22:08;9.57;;;6.70;;
2784;SDS011;57944;48.722;9.316;2023-07-30T05:24:41;14.50;;;7.63;;
2784;SDS011;57944;48.722;9.316;2023-07-30T05:27:12;10.70;;;6.27;;
2784;SDS011;57944;48.722;9.316;2023-07-30T05:29:43;11.30;;;7.20;;
2784;SDS011;57944;48.722;9.316;2023-07-30T05:32:15;9.90;;;7.97;;
2784;SDS011;57944;48.722;9.316;2023-07-30T05:34:45;9.00;;;6.70;;
2784;SDS011;57944;48.722;9.316;2023-07-30T05:37:16;7.40;;;5.53;;
2784;SDS011;57944;48.722;9.316;2023-07-30T05:39:49;12.63;;;6.73;;
2784;SDS011;57944;48.722;9.316;2023-07-30T05:42:19;11.00;;;6.27;;
2784;SDS011;57944;48.722;9.316;2023-07-30T05:44:50;7.93;;;5.90;;
2784;SDS011;57944;48.722;9.316;2023-07-30T05:47:21;8.43;;;6.63;;
2784;SDS011;57944;48.722;9.316;2023-07-30T05:49:51;10.23;;;6.00;;
2784;SDS011;57944;48.722;9.316;2023-07-30T05:52:22;9.33;;;5.30;;
2784;SDS011;57944;48.722;9.316;2023-07-30T05:54:55;8.90;;;5.70;;
2784;SDS011;57944;48.722;9.316;2023-07-30T05:57:26;11.17;;;5.60;;
2784;SDS011;57944;48.722;9.316;2023-07-30T05:59:56;11.50;;;6.10;;
2784;SDS011;57944;48.722;9.316;2023-07-30T06:02:37;9.30;;;5.77;;
2784;SDS011;57944;48.722;9.316;2023-07-30T06:05:08;12.43;;;5.87;;
2784;SDS011;57944;48.722;9.316;2023-07-30T06:07:38;6.93;;;5.40;;
2784;SDS011;57944;48.722;9.316;2023-07-30T06:10:12;5.80;;;4.50;;
2784;SDS011;57944;48.722;9.316;2023-07-30T06:12:42;7.70;;;4.60;;
2784;SDS011;57944;48.722;9.316;2023-07-30T06:15:13;6.10;;;4.87;;
2784;SDS011;57944;48.722;9.316;2023-07-30T06:17:43;5.77;;;4.50;;
2784;SDS011;57944;48.722;9.316;2023-07-30T06:20:14;10.47;;;5.00;;
2784;SDS011;57944;48.722;9.316;2023-07-30T06:22:45;6.20;;;3.90;;
2784;SDS011;57944;48.722;9.316;2023-07-30T06:25:18;5.67;;;3.93;;
2784;SDS011;57944;48.722;9.316;2023-07-30T06:27:49;7.63;;;3.67;;
2784;SDS011;57944;48.722;9.316;2023-07-30T06:30:19;5.70;;;4.40;;
2784;SDS011;57944;48.722;9.316;2023-07-30T06:32:50;7.57;;;4.83;;
2784;SDS011;57944;48.722;9.316;2023-07-30T06:35:20;6.70;;;4.60;;
2784;SDS011;57944;48.722;9.316;2023-07-30T06:37:51;6.83;;;4.47;;
2784;SDS011;57944;48.722;9.316;2023-07-30T06:40:24;8.53;;;4.93;;
2784;SDS011;57944;48.722;9.316;2023-07-30T06:42:55;7.00;;;4.20;;
2784;SDS011;57944;48.722;9.316;2023-07-30T06:45:26;5.70;;;3.70;;
2784;SDS011;57944;48.722;9.316;2023-07-30T06:47:57;5.83;;;4.00;;
2784;SDS011;57944;48.722;9.316;2023-07-30T06:50:27;4.80;;;2.77;;
2784;SDS011;57944;48.722;9.316;2023-07-30T06:52:58;6.13;;;3.43;;
2784;SDS011;57944;48.722;9.316;2023-07-30T06:55:31;4.73;;;2.80;;
2784;SDS011;57944;48.722;9.316;2023-07-30T06:58:02;9.83;;;3.80;;
2784;SDS011;57944;48.722;9.316;2023-07-30T07:00:32;4.80;;;2.90;;
2784;SDS011;57944;48.722;9.316;2023-07-30T07:03:03;4.93;;;2.70;;
2784;SDS011;57944;48.722;9.316;2023-07-30T07:05:34;8.43;;;3.73;;
2784;SDS011;57944;48.722;9.316;2023-07-30T07:08:04;8.60;;;3.10;;
2784;SDS011;57944;48.722;9.316;2023-07-30T07:10:38;5.20;;;3.33;;
2784;SDS011;57944;48.722;9.316;2023-07-30T07:13:08;5.63;;;2.93;;
2784;SDS011;57944;48.722;9.316;2023-07-30T07:15:41;5.07;;;3.00;;
2784;SDS011;57944;48.722;9.316;2023-07-30T07:18:12;4.33;;;2.60;;
2784;SDS011;57944;48.722;9.316;2023-07-30T07:20:42;4.73;;;2.33;;
2784;SDS011;57944;48.722;9.316;2023-07-30T07:23:13;6.43;;;3.27;;
2784;SDS011;57944;48.722;9.316;2023-07-30T07:25:47;4.43;;;2.70;;
2784;SDS011;57944;48.722;9.316;2023-07-30T07:28:17;3.77;;;2.57;;
2784;SDS011;57944;48.722;9.316;2023-07-30T07:30:48;4.87;;;2.80;;
2784;SDS011;57944;48.722;9.316;2023-07-30T07:33:18;6.70;;;2.87;;
2784;SDS011;57944;48.722;9.316;2023-07-30T07:35:49;3.83;;;2.87;;
2784;SDS011;57944;48.722;9.316;2023-07-30T07:38:20;6.13;;;2.80;;
2784;SDS011;57944;48.722;9.316;2023-07-30T07:40:53;5.30;;;3.10;;
2784;SDS011;57944;48.722;9.316;2023-07-30T07:43:24;7.53;;;3.30;;
2784;SDS011;57944;48.722;9.316;2023-07-30T07:45:55;10.07;;;4.07;;
2784;SDS011;57944;48.722;9.316;2023-07-30T07:48:25;4.10;;;3.20;;
2784;SDS011;57944;48.722;9.316;2023-07-30T07:50:56;3.73;;;2.50;;
2784;SDS011;57944;48.722;9.316;2023-07-30T07:53:27;7.97;;;2.77;;
2784;SDS011;57944;48.722;9.316;2023-07-30T07:56:00;6.23;;;2.60;;
2784;SDS011;57944;48.722;9.316;2023-07-30T07:58:31;6.90;;;2.70;;
2784;SDS011;57944;48.722;9.316;2023-07-30T08:01:02;5.57;;;2.40;;
2784;SDS011;57944;48.722;9.316;2023-07-30T08:03:33;3.87;;;2.63;;
2784;SDS011;57944;48.722;9.316;2023-07-30T08:06:03;5.87;;;2.80;;
2784;SDS011;57944;48.722;9.316;2023-07-30T08:08:34;3.97;;;2.80;;
2784;SDS011;57944;48.722;9.316;2023-07-30T08:11:08;6.63;;;3.07;;
2784;SDS011;57944;48.722;9.316;2023-07-30T08:13:38;4.40;;;2.93;;
2784;SDS011;57944;48.722;9.316;2023-07-30T08:16:09;3.80;;;2.40;;
2784;SDS011;57944;48.722;9.316;2023-07-30T08:18:40;4.00;;;2.67;;
2784;SDS011;57944;48.722;9.316;2023-07-30T08:21:11;5.03;;;2.50;;
2784;SDS011;57944;48.722;9.316;2023-07-30T08:23:45;4.53;;;2.83;;
2784;SDS011;57944;48.722;9.316;2023-07-30T08:26:18;4.43;;;2.70;;
2784;SDS011;57944;48.722;9.316;2023-07-30T08:28:49;4.10;;;2.67;;
2784;SDS011;57944;48.722;9.316;2023-07-30T08:31:19;4.07;;;2.57;;
2784;SDS011;57944;48.722;9.316;2023-07-30T08:33:50;3.37;;;2.40;;
2784;SDS011;57944;48.722;9.316;2023-07-30T08:36:21;3.77;;;2.50;;
2784;SDS011;57944;48.722;9.316;2023-07-30T08:38:51;5.20;;;2.80;;
2784;SDS011;57944;48.722;9.316;2023-07-30T08:41:25;4.47;;;2.73;;
2784;SDS011;57944;48.722;9.316;2023-07-30T08:43:55;4.70;;;2.23;;
2784;SDS011;57944;48.722;9.316;2023-07-30T08:46:26;5.80;;;2.60;;
2784;SDS011;57944;48.722;9.316;2023-07-30T08:48:57;3.30;;;2.10;;
2784;SDS011;57944;48.722;9.316;2023-07-30T08:51:28;3.20;;;2.00;;
2784;SDS011;57944;48.722;9.316;2023-07-30T08:54:00;4.87;;;2.10;;
2784;SDS011;57944;48.722;9.316;2023-07-30T08:56:35;4.30;;;2.40;;
2784;SDS011;57944;48.722;9.316;2023-07-30T08:59:06;4.00;;;2.20;;
2784;SDS011;57944;48.722;9.316;2023-07-30T09:01:37;4.03;;;2.00;;
2784;SDS011;57944;48.722;9.316;2023-07-30T09:04:09;3.80;;;2.40;;
2784;SDS011;57944;48.722;9.316;2023-07-30T09:06:40;7.43;;;1.90;;
2784;SDS011;57944;48.722;9.316;2023-07-30T09:09:11;4.13;;;1.80;;
2784;SDS011;57944;48.722;9.316;2023-07-30T09:11:45;3.50;;;2.07;;
2784;SDS011;57944;48.722;9.316;2023-07-30T09:14:21;6.17;;;2.10;;
2784;SDS011;57944;48.722;9.316;2023-07-30T09:16:56;5.37;;;2.37;;
2784;SDS011;57944;48.722;9.316;2023-07-30T09:19:27;3.77;;;2.23;;
2784;SDS011;57944;48.722;9.316;2023-07-30T09:21:57;3.90;;;2.20;;
2784;SDS011;57944;48.722;9.316;2023-07-30T09:24:29;4.07;;;2.40;;
2784;SDS011;57944;48.722;9.316;2023-07-30T09:27:04;3.67;;;2.17;;
2784;SDS011;57944;48.722;9.316;2023-07-30T09:29:34;3.43;;;2.27;;
2784;SDS011;57944;48.722;9.316;2023-07-30T09:32:05;5.20;;;2.37;;
2784;SDS011;57944;48.722;9.316;2023-07-30T09:34:37;3.43;;;2.27;;
2784;SDS011;57944;48.722;9.316;2023-07-30T09:37:15;3.97;;;2.57;;
2784;SDS011;57944;48.722;9.316;2023-07-30T09:39:47;5.13;;;2.63;;
2784;SDS011;57944;48.722;9.316;2023-07-30T09:42:20;3.73;;;2.60;;
2784;SDS011;57944;48.722;9.316;2023-07-30T09:44:58;4.43;;;2.80;;
2784;SDS011;57944;48.722;9.316;2023-07-30T09:47:30;7.03;;;3.90;;
2784;SDS011;57944;48.722;9.316;2023-07-30T09:50:02;5.33;;;3.10;;
2784;SDS011;57944;48.722;9.316;2023-07-30T09:52:32;9.40;;;3.93;;
2784;SDS011;57944;48.722;9.316;2023-07-30T09:55:04;5.70;;;3.93;;
2784;SDS011;57944;48.722;9.316;2023-07-30T09:57:39;6.70;;;4.17;;
2784;SDS011;57944;48.722;9.316;2023-07-30T10:00:10;6.07;;;3.33;;
2784;SDS011;57944;48.722;9.316;2023-07-30T10:02:41;5.30;;;3.83;;
2784;SDS011;57944;48.722;9.316;2023-07-30T10:05:16;5.60;;;3.93;;
2784;SDS011;57944;48.722;9.316;2023-07-30T10:07:49;5.60;;;3.13;;
2784;SDS011;57944;48.722;9.316;2023-07-30T10:10:22;5.00;;;3.20;;
2784;SDS011;57944;48.722;9.316;2023-07-30T10:12:59;9.50;;;3.93;;
2784;SDS011;57944;48.722;9.316;2023-07-30T10:15:33;5.90;;;3.57;;
2784;SDS011;57944;48.722;9.316;2023-07-30T10:18:04;4.60;;;3.30;;
2784;SDS011;57944;48.722;9.316;2023-07-30T10:20:36;5.40;;;2.97;;
2784;SDS011;57944;48.722;9.316;2023-07-30T10:23:07;4.70;;;3.10;;
2784;SDS011;57944;48.722;9.316;2023-07-30T10:25:45;4.77;;;2.60;;
2784;SDS011;57944;48.722;9.316;2023-07-30T10:28:28;4.70;;;2.67;;
2784;SDS011;57944;48.722;9.316;2023-07-30T10:31:04;5.10;;;3.23;;
2784;SDS011;57944;48.722;9.316;2023-07-30T10:33:43;6.60;;;3.40;;
2784;SDS011;57944;48.722;9.316;2023-07-30T10:36:18;4.50;;;2.57;;
2784;SDS011;57944;48.722;9.316;2023-07-30T10:39:00;4.50;;;2.90;;
2784;SDS011;57944;48.722;9.316;2023-07-30T10:41:40;4.60;;;2.53;;
2784;SDS011;57944;48.722;9.316;2023-07-30T10:47:01;6.20;;;2.73;;
2784;SDS011;57944;48.722;9.316;2023-07-30T10:49:35;11.73;;;3.40;;
2784;SDS011;57944;48.722;9.316;2023-07-30T10:52:07;5.20;;;4.07;;
2784;SDS011;57944;48.722;9.316;2023-07-30T10:54:38;5.90;;;3.37;;
2784;SDS011;57944;48.722;9.316;2023-07-30T10:57:09;4.50;;;3.50;;
2784;SDS011;57944;48.722;9.316;2023-07-30T10:59:42;5.10;;;2.90;;
2784;SDS011;57944;48.722;9.316;2023-07-30T11:02:13;5.03;;;3.43;;
2784;SDS011;57944;48.722;9.316;2023-07-30T11:04:45;5.07;;;2.47;;
2784;SDS011;57944;48.722;9.316;2023-07-30T11:07:17;3.87;;;2.90;;
2784;SDS011;57944;48.722;9.316;2023-07-30T11:09:57;4.80;;;2.90;;
2784;SDS011;57944;48.722;9.316;2023-07-30T11:12:29;4.97;;;2.60;;
2784;SDS011;57944;48.722;9.316;2023-07-30T11:15:04;5.93;;;2.50;;
2784;SDS011;57944;48.722;9.316;2023-07-30T11:17:36;6.63;;;2.93;;
2784;SDS011;57944;48.722;9.316;2023-07-30T11:20:07;3.47;;;2.50;;
2784;SDS011;57944;48.722;9.316;2023-07-30T11:22:50;4.53;;;2.70;;
2784;SDS011;57944;48.722;9.316;2023-07-30T11:25:21;19.20;;;3.20;;
2784;SDS011;57944;48.722;9.316;2023-07-30T11:27:51;3.90;;;2.57;;
2784;SDS011;57944;48.722;9.316;2023-07-30T11:30:25;4.70;;;2.90;;
2784;SDS011;57944;48.722;9.316;2023-07-30T11:32:56;6.23;;;2.80;;
2784;SDS011;57944;48.722;9.316;2023-07-30T11:35:27;6.80;;;2.90;;
2784;SDS011;57944;48.722;9.316;2023-07-30T11:37:59;5.37;;;3.00;;
2784;SDS011;57944;48.722;9.316;2023-07-30T11:40:29;4.80;;;2.90;;
2784;SDS011;57944;48.722;9.316;2023-07-30T11:43:00;6.20;;;2.93;;
2784;SDS011;57944;48.722;9.316;2023-07-30T11:45:34;7.53;;;3.30;;
2784;SDS011;57944;48.722;9.316;2023-07-30T11:48:05;4.10;;;2.70;;
2784;SDS011;57944;48.722;9.316;2023-07-30T11:50:47;4.63;;;2.70;;
2784;SDS011;57944;48.722;9.316;2023-07-30T11:53:18;4.80;;;3.03;;
2784;SDS011;57944;48.722;9.316;2023-07-30T11:55:50;5.93;;;3.10;;
2784;SDS011;57944;48.722;9.316;2023-07-30T11:58:21;5.30;;;3.20;;
2784;SDS011;57944;48.722;9.316;2023-07-30T12:01:00;4.40;;;2.80;;
2784;SDS011;57944;48.722;9.316;2023-07-30T12:03:31;4.50;;;3.00;;
2784;SDS011;57944;48.722;9.316;2023-07-30T12:06:04;6.13;;;3.80;;
2784;SDS011;57944;48.722;9.316;2023-07-30T12:08:35;4.80;;;2.70;;
2784;SDS011;57944;48.722;9.316;2023-07-30T12:11:06;10.20;;;3.23;;
2784;SDS011;57944;48.722;9.316;2023-07-30T12:13:44;3.67;;;2.33;;
2784;SDS011;57944;48.722;9.316;2023-07-30T12:16:19;4.57;;;3.07;;
2784;SDS011;57944;48.722;9.316;2023-07-30T12:18:50;6.73;;;2.80;;
2784;SDS011;57944;48.722;9.316;2023-07-30T12:21:20;3.87;;;2.60;;
2784;SDS011;57944;48.722;9.316;2023-07-30T12:23:51;5.40;;;2.97;;
2784;SDS011;57944;48.722;9.316;2023-07-30T12:26:22;6.57;;;2.70;;
2784;SDS011;57944;48.722;9.316;2023-07-30T12:28:52;6.00;;;2.70;;
2784;SDS011;57944;48.722;9.316;2023-07-30T12:31:25;5.50;;;2.77;;
2784;SDS011;57944;48.722;9.316;2023-07-30T12:33:56;4.37;;;2.50;;
2784;SDS011;57944;48.722;9.316;2023-07-30T12:36:26;6.20;;;2.80;;
2784;SDS011;57944;48.722;9.316;2023-07-30T12:38:57;6.30;;;3.20;;
2784;SDS011;57944;48.722;9.316;2023-07-30T12:41:28;5.10;;;3.33;;
2784;SDS011;57944;48.722;9.316;2023-07-30T12:43:58;6.07;;;3.53;;
2784;SDS011;57944;48.722;9.316;2023-07-30T12:46:33;5.10;;;3.37;;
2784;SDS011;57944;48.722;9.316;2023-07-30T12:49:03;6.73;;;3.97;;
2784;SDS011;57944;48.722;9.316;2023-07-30T12:51:34;4.43;;;3.23;;
2784;SDS011;57944;48.722;9.316;2023-07-30T12:54:04;4.07;;;3.00;;
2784;SDS011;57944;48.722;9.316;2023-07-30T12:56:35;5.00;;;2.90;;
2784;SDS011;57944;48.722;9.316;2023-07-30T12:59:06;7.93;;;3.70;;
2784;SDS011;57944;48.722;9.316;2023-07-30T13:01:39;4.73;;;3.30;;
2784;SDS011;57944;48.722;9.316;2023-07-30T13:04:13;5.00;;;2.80;;
2784;SDS011;57944;48.722;9.316;2023-07-30T13:06:44;9.10;;;4.07;;
2784;SDS011;57944;48.722;9.316;2023-07-30T13:09:14;4.57;;;2.60;;
2784;SDS011;57944;48.722;9.316;2023-07-30T13:11:45;7.80;;;3.00;;
2784;SDS011;57944;48.722;9.316;2023-07-30T13:14:15;9.10;;;3.40;;
2784;SDS011;57944;48.722;9.316;2023-07-30T13:16:49;5.27;;;3.40;;
2784;SDS011;57944;48.722;9.316;2023-07-30T13:19:19;5.70;;;3.20;;
2784;SDS011;57944;48.722;9.316;2023-07-30T13:21:50;5.17;;;3.10;;
2784;SDS011;57944;48.722;9.316;2023-07-30T13:24:20;6.60;;;3.63;;
2784;SDS011;57944;48.722;9.316;2023-07-30T13:26:51;7.87;;;3.40;;
2784;SDS011;57944;48.722;9.316;2023-07-30T13:29:22;4.47;;;2.80;;
2784;SDS011;57944;48.722;9.316;2023-07-30T13:31:55;6.27;;;2.80;;
2784;SDS011;57944;48.722;9.316;2023-07-30T13:34:26;5.83;;;3.00;;
2784;SDS011;57944;48.722;9.316;2023-07-30T13:36:56;4.73;;;2.43;;
2784;SDS011;57944;48.722;9.316;2023-07-30T13:39:27;5.90;;;3.50;;
2784;SDS011;57944;48.722;9.316;2023-07-30T13:41:57;4.60;;;3.13;;
2784;SDS011;57944;48.722;9.316;2023-07-30T13:44:28;6.90;;;3.40;;
2784;SDS011;57944;48.722;9.316;2023-07-30T13:47:01;4.27;;;2.80;;
2784;SDS011;57944;48.722;9.316;2023-07-30T13:49:33;5.13;;;3.20;;
2784;SDS011;57944;48.722;9.316;2023-07-30T13:52:04;4.50;;;3.00;;
2784;SDS011;57944;48.722;9.316;2023-07-30T13:54:35;6.27;;;2.80;;
2784;SDS011;57944;48.722;9.316;2023-07-30T13:57:05;4.47;;;2.47;;
2784;SDS011;57944;48.722;9.316;2023-07-30T13:59:36;7.17;;;3.60;;
2784;SDS011;57944;48.722;9.316;2023-07-30T14:02:13;4.20;;;2.23;;
2784;SDS011;57944;48.722;9.316;2023-07-30T14:04:44;4.63;;;3.10;;
2784;SDS011;57944;48.722;9.316;2023-07-30T14:07:14;4.70;;;3.30;;
2784;SDS011;57944;48.722;9.316;2023-07-30T14:09:45;4.67;;;2.60;;
2784;SDS011;57944;48.722;9.316;2023-07-30T14:12:15;6.37;;;2.83;;
2784;SDS011;57944;48.722;9.316;2023-07-30T14:14:46;5.60;;;3.00;;
2784;SDS011;57944;48.722;9.316;2023-07-30T14:17:19;4.43;;;2.87;;
2784;SDS011;57944;48.722;9.316;2023-07-30T14:19:50;5.27;;;2.60;;
2784;SDS011;57944;48.722;9.316;2023-07-30T14:22:22;5.40;;;2.77;;
2784;SDS011;57944;48.722;9.316;2023-07-30T14:24:52;4.93;;;2.97;;
2784;SDS011;57944;48.722;9.316;2023-07-30T14:27:24;5.13;;;2.60;;
2784;SDS011;57944;48.722;9.316;2023-07-30T14:29:54;6.87;;;2.60;;
2784;SDS011;57944;48.722;9.316;2023-07-30T14:32:28;4.10;;;2.20;;
2784;SDS011;57944;48.722;9.316;2023-07-30T14:34:59;4.80;;;3.07;;
2784;SDS011;57944;48.722;9.316;2023-07-30T14:37:29;3.73;;;2.50;;
2784;SDS011;57944;48.722;9.316;2023-07-30T14:40:00;5.20;;;2.50;;
2784;SDS011;57944;48.722;9.316;2023-07-30T14:42:30;7.83;;;2.60;;
2784;SDS011;57944;48.722;9.316;2023-07-30T14:45:01;6.60;;;3.23;;
2784;SDS011;57944;48.722;9.316;2023-07-30T14:47:34;6.40;;;4.20;;
2784;SDS011;57944;48.722;9.316;2023-07-30T14:50:06;4.60;;;3.03;;
2784;SDS011;57944;48.722;9.316;2023-07-30T14:52:37;3.90;;;2.53;;
2784;SDS011;57944;48.722;9.316;2023-07-30T14:55:08;5.80;;;2.60;;
2784;SDS011;57944;48.722;9.316;2023-07-30T14:57:38;3.77;;;2.20;;
2784;SDS011;57944;48.722;9.316;2023-07-30T15:00:10;5.00;;;3.17;;
2784;SDS011;57944;48.722;9.316;2023-07-30T15:02:45;6.73;;;2.67;;
2784;SDS011;57944;48.722;9.316;2023-07-30T15:05:16;4.57;;;2.73;;
2784;SDS011;57944;48.722;9.316;2023-07-30T15:07:47;5.40;;;3.10;;
2784;SDS011;57944;48.722;9.316;2023-07-30T15:10:18;5.67;;;2.93;;
2784;SDS011;57944;48.722;9.316;2023-07-30T15:12:48;4.53;;;2.43;;
2784;SDS011;57944;48.722;9.316;2023-07-30T15:15:19;5.13;;;2.70;;
2784;SDS011;57944;48.722;9.316;2023-07-30T15:17:53;4.93;;;2.33;;
2784;SDS011;57944;48.722;9.316;2023-07-30T15:20:23;5.63;;;2.63;;
2784;SDS011;57944;48.722;9.316;2023-07-30T15:22:54;10.07;;;2.70;;
2784;SDS011;57944;48.722;9.316;2023-07-30T15:25:25;5.33;;;2.23;;
2784;SDS011;57944;48.722;9.316;2023-07-30T15:27:56;4.50;;;2.00;;